Time;durP1;ratioP1;P1;durP2;ratioP2;P2;SDS_P1;SDS_P2;PMS_P1;PMS_P2;Temp;Humidity;BMP_temperature;BMP_pressure;BME280_temperature;BME280_humidity;BME280_pressure;Samples;Min_cycle;Max_cycle;Signal;HPM_P1;HPM_P2
2024/02/26 00:00:34;;;;;;;3.90;2.47;;;;;;;;;;6167359;23;20185;-82
2024/02/26 00:03:03;;;;;;;2.70;2.30;;;;;;;;;;6169998;23;20216;-82
2024/02/26 00:05:32;;;;;;;4.90;2.30;;;;;;;;;;6196293;23;20170;-82
2024/02/26 00:08:00;;;;;;;3.07;2.27;;;;;;;;;;6144345;23;20174;-80
2024/02/26 00:10:32;;;;;;;3.20;2.17;;;;;;;;;;6168365;23;20249;-81
2024/02/26 00:13:00;;;;;;;3.13;2.20;;;;;;;;;;6167572;23;20205;-80
2024/02/26 00:15:35;;;;;;;3.33;2.33;;;;;;;;;;6193473;23;20157;-80
2024/02/26 00:18:02;;;;;;;3.87;2.20;;;;;;;;;;6167245;23;20170;-80
2024/02/26 00:20:31;;;;;;;4.70;2.20;;;;;;;;;;6143196;23;20273;-82
2024/02/26 00:22:59;;;;;;;2.83;2.13;;;;;;;;;;6167699;23;20168;-80
2024/02/26 00:25:29;;;;;;;3.30;2.03;;;;;;;;;;6167202;23;20171;-81
2024/02/26 00:27:58;;;;;;;5.60;2.10;;;;;;;;;;6167804;23;20245;-80
2024/02/26 00:30:25;;;;;;;4.13;1.90;;;;;;;;;;6167142;23;20249;-80
2024/02/26 00:32:56;;;;;;;3.30;2.30;;;;;;;;;;6168959;23;20516;-81
2024/02/26 00:35:27;;;;;;;4.17;2.40;;;;;;;;;;6167043;23;20176;-80
2024/02/26 00:37:55;;;;;;;3.30;2.30;;;;;;;;;;6144113;23;20174;-80
2024/02/26 00:40:24;;;;;;;3.13;1.90;;;;;;;;;;6168387;23;20199;-82
2024/02/26 00:42:51;;;;;;;3.37;2.00;;;;;;;;;;6168090;23;20166;-81
2024/02/26 00:45:20;;;;;;;3.63;2.00;;;;;;;;;;6168603;23;20202;-81
2024/02/26 00:47:48;;;;;;;3.07;1.63;;;;;;;;;;6142916;23;20190;-82
2024/02/26 00:50:16;;;;;;;3.60;2.10;;;;;;;;;;6143184;23;20201;-80
2024/02/26 00:52:44;;;;;;;3.03;2.00;;;;;;;;;;6169323;23;20166;-81
2024/02/26 00:55:16;;;;;;;2.77;1.90;;;;;;;;;;6168514;23;20243;-82
2024/02/26 00:57:47;;;;;;;4.80;2.10;;;;;;;;;;6169232;23;20188;-82
2024/02/26 01:00:18;;;;;;;3.17;2.13;;;;;;;;;;6169503;23;20186;-82
2024/02/26 01:02:48;;;;;;;2.17;1.77;;;;;;;;;;6170468;23;20163;-82
2024/02/26 01:05:18;;;;;;;3.30;2.20;;;;;;;;;;6168227;23;20236;-80
2024/02/26 01:07:47;;;;;;;4.83;2.20;;;;;;;;;;6144176;23;20173;-82
2024/02/26 01:10:14;;;;;;;4.00;2.13;;;;;;;;;;6145407;23;20234;-82
2024/02/26 01:12:45;;;;;;;2.97;1.70;;;;;;;;;;6169589;23;20185;-82
2024/02/26 01:15:14;;;;;;;2.43;1.60;;;;;;;;;;6146094;23;20185;-82
2024/02/26 01:17:42;;;;;;;1.80;1.60;;;;;;;;;;6169773;23;20174;-82
2024/02/26 01:20:14;;;;;;;3.20;1.97;;;;;;;;;;6146444;23;20211;-82
2024/02/26 01:22:47;;;;;;;2.43;1.83;;;;;;;;;;6196500;23;20597;-81
2024/02/26 01:25:15;;;;;;;5.30;2.00;;;;;;;;;;6145002;23;20185;-82
2024/02/26 01:27:49;;;;;;;3.93;1.97;;;;;;;;;;6145396;23;20229;-81
2024/02/26 01:30:20;;;;;;;3.63;1.67;;;;;;;;;;6170963;23;20151;-82
2024/02/26 01:32:49;;;;;;;2.57;1.70;;;;;;;;;;6170637;23;20164;-82
2024/02/26 01:35:21;;;;;;;3.27;2.20;;;;;;;;;;6171688;23;20162;-82
2024/02/26 01:37:58;;;;;;;2.93;1.80;;;;;;;;;;6195829;23;20230;-82
2024/02/26 01:40:31;;;;;;;3.30;1.90;;;;;;;;;;6171008;23;20186;-80
2024/02/26 01:43:01;;;;;;;2.33;1.67;;;;;;;;;;6144390;23;20186;-80
2024/02/26 01:45:29;;;;;;;2.33;1.70;;;;;;;;;;6168997;23;20217;-82
2024/02/26 01:47:59;;;;;;;2.87;1.90;;;;;;;;;;6144494;23;20171;-81
2024/02/26 01:50:27;;;;;;;3.17;1.90;;;;;;;;;;6168492;23;20176;-80
2024/02/26 01:52:57;;;;;;;2.20;1.70;;;;;;;;;;6169043;23;20170;-80
2024/02/26 01:55:26;;;;;;;3.73;1.80;;;;;;;;;;6166664;23;20658;-80
2024/02/26 01:57:56;;;;;;;2.97;1.97;;;;;;;;;;6166974;23;20188;-81
2024/02/26 02:00:25;;;;;;;3.13;1.80;;;;;;;;;;6142514;23;20281;-79
2024/02/26 02:02:54;;;;;;;3.10;2.00;;;;;;;;;;6165646;23;20249;-80
2024/02/26 02:05:25;;;;;;;4.77;1.97;;;;;;;;;;6165403;23;20222;-79
2024/02/26 02:07:55;;;;;;;4.23;2.40;;;;;;;;;;6166272;23;20194;-80
2024/02/26 02:10:25;;;;;;;3.03;1.70;;;;;;;;;;6166758;23;20597;-80
2024/02/26 02:12:54;;;;;;;2.53;1.67;;;;;;;;;;6142778;23;20166;-81
2024/02/26 02:15:21;;;;;;;2.03;1.63;;;;;;;;;;6165748;23;20257;-79
2024/02/26 02:17:49;;;;;;;3.03;1.83;;;;;;;;;;6163335;23;20175;-79
2024/02/26 02:20:17;;;;;;;2.80;2.00;;;;;;;;;;6162637;23;20528;-79
2024/02/26 02:22:49;;;;;;;3.10;1.80;;;;;;;;;;6163026;23;20170;-80
2024/02/26 02:25:16;;;;;;;2.97;1.83;;;;;;;;;;6163156;23;20181;-80
2024/02/26 02:27:45;;;;;;;3.90;1.90;;;;;;;;;;6189457;23;20220;-80
2024/02/26 02:30:13;;;;;;;2.70;2.20;;;;;;;;;;6163229;23;20181;-80
2024/02/26 02:32:46;;;;;;;4.40;2.33;;;;;;;;;;6163173;23;20237;-79
2024/02/26 02:35:22;;;;;;;3.80;2.10;;;;;;;;;;6163799;23;20248;-80
2024/02/26 02:37:52;;;;;;;4.00;2.20;;;;;;;;;;6189400;23;20174;-79
2024/02/26 02:40:20;;;;;;;4.37;2.17;;;;;;;;;;6163308;23;20182;-79
2024/02/26 02:42:48;;;;;;;3.23;2.27;;;;;;;;;;6163642;23;20166;-80
2024/02/26 02:45:20;;;;;;;4.63;2.17;;;;;;;;;;6165103;23;20190;-80
2024/02/26 02:47:49;;;;;;;4.17;2.27;;;;;;;;;;6162714;23;20224;-80
2024/02/26 02:50:23;;;;;;;3.57;1.90;;;;;;;;;;6164683;23;20142;-80
2024/02/26 02:52:50;;;;;;;3.53;2.10;;;;;;;;;;6138821;23;20201;-80
2024/02/26 02:55:18;;;;;;;3.57;2.40;;;;;;;;;;6189686;23;20597;-80
2024/02/26 02:57:45;;;;;;;3.07;1.90;;;;;;;;;;6163275;23;20226;-80
2024/02/26 03:00:18;;;;;;;4.57;1.87;;;;;;;;;;6162883;23;20202;-80
2024/02/26 03:02:47;;;;;;;3.83;2.37;;;;;;;;;;6189232;23;20169;-80
2024/02/26 03:05:15;;;;;;;4.10;2.50;;;;;;;;;;6162498;23;20293;-80
2024/02/26 03:07:42;;;;;;;3.50;2.33;;;;;;;;;;6163577;23;20241;-80
2024/02/26 03:10:10;;;;;;;5.17;2.47;;;;;;;;;;6163149;23;20189;-80
2024/02/26 03:12:37;;;;;;;4.37;2.70;;;;;;;;;;6188609;23;20255;-80
2024/02/26 03:15:06;;;;;;;3.47;2.40;;;;;;;;;;6163847;23;20194;-80
2024/02/26 03:17:33;;;;;;;5.87;2.50;;;;;;;;;;6163935;23;20223;-80
2024/02/26 03:20:01;;;;;;;4.50;2.63;;;;;;;;;;6138571;23;20295;-80
2024/02/26 03:22:31;;;;;;;5.70;2.73;;;;;;;;;;6138607;23;20178;-80
2024/02/26 03:24:59;;;;;;;5.33;2.70;;;;;;;;;;6189653;23;20232;-80
2024/02/26 03:27:29;;;;;;;2.93;2.20;;;;;;;;;;6189045;23;20166;-79
2024/02/26 03:29:58;;;;;;;3.60;2.40;;;;;;;;;;6163500;23;20201;-80
2024/02/26 03:32:26;;;;;;;6.17;2.57;;;;;;;;;;6163876;23;20166;-80
2024/02/26 03:34:54;;;;;;;2.53;2.20;;;;;;;;;;6163360;23;20175;-80
2024/02/26 03:37:23;;;;;;;3.27;2.40;;;;;;;;;;6165660;23;20198;-80
2024/02/26 03:39:50;;;;;;;4.33;2.50;;;;;;;;;;6141826;23;20175;-80
2024/02/26 03:42:19;;;;;;;3.73;2.20;;;;;;;;;;6165514;23;20198;-80
2024/02/26 03:44:49;;;;;;;3.50;2.27;;;;;;;;;;6166046;23;20208;-80
2024/02/26 03:47:18;;;;;;;3.80;2.10;;;;;;;;;;6192410;23;20162;-80
2024/02/26 03:49:45;;;;;;;2.63;2.13;;;;;;;;;;6190500;23;20170;-80
2024/02/26 03:52:14;;;;;;;3.40;2.30;;;;;;;;;;6188868;23;20175;-80
2024/02/26 03:54:42;;;;;;;3.47;2.10;;;;;;;;;;6191066;23;20200;-80
2024/02/26 03:57:11;;;;;;;2.47;2.20;;;;;;;;;;6192882;23;20171;-80
2024/02/26 03:59:39;;;;;;;4.00;2.23;;;;;;;;;;6191523;23;20162;-80
2024/02/26 04:02:16;;;;;;;2.93;2.10;;;;;;;;;;6190725;23;20186;-80
2024/02/26 04:04:46;;;;;;;4.03;2.37;;;;;;;;;;6191185;23;20201;-80
2024/02/26 04:07:19;;;;;;;2.70;2.07;;;;;;;;;;6189905;23;20158;-80
2024/02/26 04:09:47;;;;;;;3.87;2.37;;;;;;;;;;6190003;23;20672;-80
2024/02/26 04:12:14;;;;;;;4.57;2.00;;;;;;;;;;6189559;23;20198;-80
2024/02/26 04:14:43;;;;;;;3.00;2.20;;;;;;;;;;6191237;23;20162;-80
2024/02/26 04:17:11;;;;;;;2.53;2.17;;;;;;;;;;6189357;23;20166;-80
2024/02/26 04:19:38;;;;;;;3.40;2.20;;;;;;;;;;6189094;23;20167;-80
2024/02/26 04:22:05;;;;;;;3.40;2.00;;;;;;;;;;6188765;23;20218;-80
2024/02/26 04:24:33;;;;;;;3.63;2.37;;;;;;;;;;6188979;23;20177;-80
2024/02/26 04:27:03;;;;;;;3.13;2.07;;;;;;;;;;6189314;23;20623;-81
2024/02/26 04:29:30;;;;;;;3.77;1.90;;;;;;;;;;6165098;23;20172;-80
2024/02/26 04:31:58;;;;;;;3.23;2.30;;;;;;;;;;6191494;23;20234;-80
2024/02/26 04:34:26;;;;;;;2.60;2.20;;;;;;;;;;6191478;23;20171;-80
2024/02/26 04:36:54;;;;;;;3.73;2.40;;;;;;;;;;6189315;23;20186;-80
2024/02/26 04:39:21;;;;;;;3.83;2.40;;;;;;;;;;6189356;23;20176;-80
2024/02/26 04:41:51;;;;;;;3.37;2.27;;;;;;;;;;6165420;23;20190;-80
2024/02/26 04:44:19;;;;;;;3.47;2.43;;;;;;;;;;6162925;23;20198;-80
2024/02/26 04:46:46;;;;;;;2.93;2.13;;;;;;;;;;6165302;23;20158;-80
2024/02/26 04:49:17;;;;;;;3.03;1.87;;;;;;;;;;6191326;23;20169;-80
2024/02/26 04:51:44;;;;;;;2.33;2.07;;;;;;;;;;6188981;23;20178;-80
2024/02/26 04:54:17;;;;;;;3.03;2.20;;;;;;;;;;6189542;23;20222;-79
2024/02/26 04:56:45;;;;;;;2.43;2.10;;;;;;;;;;6190774;23;20159;-80
2024/02/26 04:59:15;;;;;;;3.33;2.00;;;;;;;;;;6189218;23;20517;-81
2024/02/26 05:01:43;;;;;;;2.50;1.80;;;;;;;;;;6190926;23;20191;-80
2024/02/26 05:04:11;;;;;;;3.93;2.23;;;;;;;;;;6190752;23;20167;-80
2024/02/26 05:06:40;;;;;;;3.63;2.17;;;;;;;;;;6191260;23;20174;-80
2024/02/26 05:09:08;;;;;;;3.30;2.00;;;;;;;;;;6164775;23;20258;-80
2024/02/26 05:11:35;;;;;;;3.50;2.13;;;;;;;;;;6189110;23;20734;-80
2024/02/26 05:14:06;;;;;;;4.73;2.23;;;;;;;;;;6190545;23;20692;-80
2024/02/26 05:16:36;;;;;;;3.73;1.90;;;;;;;;;;6191135;23;20170;-80
2024/02/26 05:19:06;;;;;;;4.17;2.20;;;;;;;;;;6187969;23;20163;-79
2024/02/26 05:21:36;;;;;;;3.17;2.20;;;;;;;;;;6188364;23;20237;-78
2024/02/26 05:24:03;;;;;;;2.17;1.80;;;;;;;;;;6185773;23;20174;-78
2024/02/26 05:26:31;;;;;;;4.90;2.33;;;;;;;;;;6185905;23;20167;-79
2024/02/26 05:28:59;;;;;;;3.20;2.10;;;;;;;;;;6187407;23;20247;-79
2024/02/26 05:31:27;;;;;;;2.33;2.10;;;;;;;;;;6188147;23;20168;-80
2024/02/26 05:33:54;;;;;;;2.90;2.00;;;;;;;;;;6188032;23;20194;-79
2024/02/26 05:36:24;;;;;;;4.20;2.20;;;;;;;;;;6188959;23;20189;-78
2024/02/26 05:38:51;;;;;;;2.87;1.93;;;;;;;;;;6186908;23;20166;-79
2024/02/26 05:41:23;;;;;;;2.63;2.00;;;;;;;;;;6189654;23;20191;-79
2024/02/26 05:43:50;;;;;;;4.40;1.97;;;;;;;;;;6188132;23;20212;-79
2024/02/26 05:46:18;;;;;;;3.30;2.00;;;;;;;;;;6188130;23;20190;-80
2024/02/26 05:48:54;;;;;;;2.73;1.60;;;;;;;;;;6188075;23;20174;-80
2024/02/26 05:51:23;;;;;;;2.83;1.83;;;;;;;;;;6187703;23;20158;-79
2024/02/26 05:53:53;;;;;;;4.20;2.27;;;;;;;;;;6185908;23;20181;-80
2024/02/26 05:56:22;;;;;;;6.03;2.77;;;;;;;;;;6187658;23;20159;-79
2024/02/26 05:58:50;;;;;;;4.97;4.00;;;;;;;;;;6185751;23;20169;-79
2024/02/26 06:01:18;;;;;;;6.23;5.17;;;;;;;;;;6187092;23;20184;-79
2024/02/26 06:03:45;;;;;;;6.43;5.33;;;;;;;;;;6186034;23;20185;-79
2024/02/26 06:06:15;;;;;;;6.90;5.53;;;;;;;;;;6187077;23;20177;-79
2024/02/26 06:08:45;;;;;;;6.57;5.13;;;;;;;;;;6187516;23;20167;-79
2024/02/26 06:11:12;;;;;;;6.77;5.23;;;;;;;;;;6187550;23;20173;-79
2024/02/26 06:13:39;;;;;;;6.27;5.13;;;;;;;;;;6185878;23;20175;-79
2024/02/26 06:16:08;;;;;;;6.23;5.50;;;;;;;;;;6185648;23;20166;-79
2024/02/26 06:18:37;;;;;;;6.93;5.20;;;;;;;;;;6185858;23;20226;-79
2024/02/26 06:21:08;;;;;;;6.50;4.93;;;;;;;;;;6185082;23;20289;-80
2024/02/26 06:23:38;;;;;;;7.60;5.17;;;;;;;;;;6185033;23;20181;-79
2024/02/26 06:26:05;;;;;;;8.37;5.77;;;;;;;;;;6185094;23;20170;-79
2024/02/26 06:28:35;;;;;;;9.93;5.63;;;;;;;;;;6187479;23;20622;-79
2024/02/26 06:31:03;;;;;;;6.57;5.23;;;;;;;;;;6186684;23;20151;-79
2024/02/26 06:33:33;;;;;;;6.47;5.80;;;;;;;;;;6161515;23;20605;-79
2024/02/26 06:36:01;;;;;;;8.57;6.63;;;;;;;;;;6185791;23;20166;-79
2024/02/26 06:38:34;;;;;;;8.40;6.20;;;;;;;;;;6185617;23;20174;-79
2024/02/26 06:41:03;;;;;;;6.77;5.10;;;;;;;;;;6185517;23;20196;-79
2024/02/26 06:43:31;;;;;;;6.37;4.80;;;;;;;;;;6186702;23;20158;-79
2024/02/26 06:45:59;;;;;;;6.23;4.73;;;;;;;;;;6185065;23;20206;-79
2024/02/26 06:48:26;;;;;;;5.80;4.50;;;;;;;;;;6187198;23;20162;-79
2024/02/26 06:50:53;;;;;;;5.93;4.43;;;;;;;;;;6186776;23;20220;-79
2024/02/26 06:53:25;;;;;;;4.73;4.00;;;;;;;;;;6185682;23;20143;-80
2024/02/26 06:55:52;;;;;;;6.13;4.27;;;;;;;;;;6160728;23;20224;-79
2024/02/26 06:58:19;;;;;;;5.10;3.67;;;;;;;;;;6186112;23;20204;-80
2024/02/26 07:00:46;;;;;;;6.80;4.37;;;;;;;;;;6190183;23;20166;-80
2024/02/26 07:03:25;;;;;;;5.60;4.30;;;;;;;;;;6189101;23;20170;-80
2024/02/26 07:05:53;;;;;;;7.33;4.33;;;;;;;;;;6190343;23;20209;-78
2024/02/26 07:08:21;;;;;;;4.47;3.87;;;;;;;;;;6185932;23;20166;-78
2024/02/26 07:10:48;;;;;;;5.73;4.07;;;;;;;;;;6185467;23;20185;-78
2024/02/26 07:13:18;;;;;;;4.90;4.20;;;;;;;;;;6184405;23;20249;-78
2024/02/26 07:15:46;;;;;;;4.77;3.60;;;;;;;;;;6185997;23;20187;-79
2024/02/26 07:18:15;;;;;;;4.83;3.97;;;;;;;;;;6184725;23;20185;-79
2024/02/26 07:20:44;;;;;;;7.13;4.17;;;;;;;;;;6186350;23;20237;-79
2024/02/26 07:23:12;;;;;;;4.87;3.50;;;;;;;;;;6184934;23;20185;-78
2024/02/26 07:25:40;;;;;;;5.30;4.00;;;;;;;;;;6186066;23;20178;-79
2024/02/26 07:28:11;;;;;;;5.73;3.63;;;;;;;;;;6186194;23;20590;-79
2024/02/26 07:30:48;;;;;;;5.13;3.83;;;;;;;;;;6186199;23;20165;-79
2024/02/26 07:33:15;;;;;;;5.37;3.90;;;;;;;;;;6184505;23;20609;-79
2024/02/26 07:35:42;;;;;;;4.87;3.30;;;;;;;;;;6186080;23;20567;-80
2024/02/26 07:38:09;;;;;;;4.73;3.57;;;;;;;;;;6184357;23;20171;-79
2024/02/26 07:40:53;;;;;;;5.87;3.43;;;;;;;;;;6185238;23;20228;-79
2024/02/26 07:43:29;;;;;;;4.43;3.50;;;;;;;;;;6185930;23;20174;-79
2024/02/26 07:45:57;;;;;;;4.80;3.47;;;;;;;;;;6185909;23;20190;-79
2024/02/26 07:48:25;;;;;;;4.57;3.50;;;;;;;;;;6184827;23;20248;-79
2024/02/26 07:50:57;;;;;;;4.47;3.73;;;;;;;;;;6186536;23;20608;-79
2024/02/26 07:53:25;;;;;;;6.03;3.47;;;;;;;;;;6186119;23;20189;-78
2024/02/26 07:55:52;;;;;;;4.33;3.43;;;;;;;;;;6184429;23;20167;-79
2024/02/26 07:58:19;;;;;;;4.30;3.50;;;;;;;;;;6186271;23;20214;-79
2024/02/26 08:00:47;;;;;;;4.80;3.70;;;;;;;;;;6186147;23;20167;-79
2024/02/26 08:03:15;;;;;;;5.27;4.10;;;;;;;;;;6184608;23;20232;-79
2024/02/26 08:05:51;;;;;;;4.20;3.70;;;;;;;;;;6186410;23;20157;-79
2024/02/26 08:08:18;;;;;;;4.57;3.50;;;;;;;;;;6186524;23;20170;-79
2024/02/26 08:10:46;;;;;;;4.57;3.80;;;;;;;;;;6186479;23;20158;-79
2024/02/26 08:13:15;;;;;;;4.63;4.10;;;;;;;;;;6186107;23;20163;-79
2024/02/26 08:15:43;;;;;;;4.40;3.20;;;;;;;;;;6186371;23;20242;-79
2024/02/26 08:18:10;;;;;;;4.73;3.50;;;;;;;;;;6185234;23;20158;-80
2024/02/26 08:20:39;;;;;;;4.00;3.40;;;;;;;;;;6186216;23;20162;-79
2024/02/26 08:23:06;;;;;;;3.27;2.23;;;;;;;;;;6186289;23;20271;-79
2024/02/26 08:25:36;;;;;;;2.83;2.60;;;;;;;;;;6187048;23;20201;-80
2024/02/26 08:28:07;;;;;;;2.47;2.20;;;;;;;;;;6189016;23;20257;-79
2024/02/26 08:30:34;;;;;;;3.33;2.00;;;;;;;;;;6188700;23;20167;-79
2024/02/26 08:33:02;;;;;;;3.83;2.20;;;;;;;;;;6188660;23;20170;-79
2024/02/26 08:35:30;;;;;;;2.17;1.90;;;;;;;;;;6187346;23;20178;-80
2024/02/26 08:37:59;;;;;;;4.00;1.90;;;;;;;;;;6187938;23;20601;-80
2024/02/26 08:40:32;;;;;;;2.93;1.60;;;;;;;;;;6188781;23;20221;-79
2024/02/26 08:42:59;;;;;;;1.80;1.60;;;;;;;;;;6188674;23;20193;-79
2024/02/26 08:45:27;;;;;;;2.57;1.70;;;;;;;;;;6188674;23;20265;-79
2024/02/26 08:47:56;;;;;;;2.90;1.63;;;;;;;;;;6187571;23;20184;-80
2024/02/26 08:50:27;;;;;;;2.17;1.60;;;;;;;;;;6187584;23;20162;-80
2024/02/26 08:52:55;;;;;;;2.73;1.53;;;;;;;;;;6188039;23;20174;-80
2024/02/26 08:55:22;;;;;;;2.50;1.57;;;;;;;;;;6189084;23;20192;-79
2024/02/26 08:57:49;;;;;;;2.50;1.67;;;;;;;;;;6188769;23;20254;-80
2024/02/26 09:00:20;;;;;;;2.77;1.40;;;;;;;;;;6189688;23;20192;-80
2024/02/26 09:02:49;;;;;;;3.17;1.50;;;;;;;;;;6187808;23;20183;-79
2024/02/26 09:05:17;;;;;;;1.40;1.30;;;;;;;;;;6188613;23;20198;-80
2024/02/26 09:07:46;;;;;;;1.97;1.50;;;;;;;;;;6185450;23;20185;-83
2024/02/26 09:10:14;;;;;;;2.20;1.50;;;;;;;;;;6198271;23;20171;-81
2024/02/26 09:12:46;;;;;;;3.10;1.60;;;;;;;;;;6197907;23;20626;-82
2024/02/26 09:15:25;;;;;;;2.30;1.47;;;;;;;;;;6199065;23;20222;-82
2024/02/26 09:18:00;;;;;;;1.80;1.47;;;;;;;;;;6198473;23;20158;-81
2024/02/26 09:20:34;;;;;;;4.00;1.43;;;;;;;;;;6198248;23;20186;-82
2024/02/26 09:23:02;;;;;;;1.27;1.10;;;;;;;;;;6174037;23;20209;-82
2024/02/26 09:25:34;;;;;;;3.33;1.23;;;;;;;;;;6199969;23;20148;-81
2024/02/26 09:28:06;;;;;;;2.67;1.20;;;;;;;;;;6198569;23;20193;-82
2024/02/26 09:30:49;;;;;;;2.40;1.30;;;;;;;;;;6199827;23;20162;-81
2024/02/26 09:33:20;;;;;;;2.03;1.20;;;;;;;;;;6198173;23;20163;-81
2024/02/26 09:36:04;;;;;;;1.63;1.10;;;;;;;;;;6173867;23;20169;-82
2024/02/26 09:38:38;;;;;;;2.63;1.40;;;;;;;;;;6199901;23;20206;-81
2024/02/26 09:41:26;;;;;;;2.63;1.30;;;;;;;;;;6198561;23;20149;-82
2024/02/26 09:43:59;;;;;;;1.33;1.20;;;;;;;;;;6198504;23;20192;-81
2024/02/26 09:46:29;;;;;;;2.50;1.17;;;;;;;;;;6174950;23;20156;-81
2024/02/26 09:49:00;;;;;;;1.90;1.23;;;;;;;;;;6150097;23;20245;-81
2024/02/26 09:51:44;;;;;;;2.93;1.37;;;;;;;;;;6199568;23;20163;-82
2024/02/26 09:54:26;;;;;;;1.70;1.20;;;;;;;;;;6199269;23;20191;-81
2024/02/26 09:57:06;;;;;;;2.20;1.20;;;;;;;;;;6175414;23;20160;-81
2024/02/26 09:59:41;;;;;;;4.13;1.40;;;;;;;;;;6176303;23;20154;-81
2024/02/26 10:02:15;;;;;;;2.17;1.37;;;;;;;;;;6176649;23;20201;-81
2024/02/26 10:04:52;;;;;;;1.87;1.20;;;;;;;;;;6172239;23;20175;-81
2024/02/26 10:07:31;;;;;;;2.00;1.10;;;;;;;;;;6177932;23;20161;-81
2024/02/26 10:10:11;;;;;;;1.80;1.20;;;;;;;;;;6174972;23;20180;-81
2024/02/26 10:12:47;;;;;;;1.63;1.30;;;;;;;;;;6178332;23;20237;-81
2024/02/26 10:15:19;;;;;;;1.10;0.80;;;;;;;;;;6176248;23;20178;-81
2024/02/26 10:18:01;;;;;;;1.20;0.90;;;;;;;;;;6177177;23;20165;-82
2024/02/26 10:25:11;;;;;;;1.70;1.20;;;;;;;;;;6172158;23;20177;-81
2024/02/26 10:39:27;;;;;;;1.30;0.90;;;;;;;;;;6147524;23;20159;-81
2024/02/26 10:42:12;;;;;;;3.17;1.27;;;;;;;;;;6150397;23;20200;-82
2024/02/26 10:49:26;;;;;;;0.80;0.70;;;;;;;;;;6171349;23;20140;-82
2024/02/26 10:52:59;;;;;;;1.23;0.83;;;;;;;;;;6171399;23;20277;-81
2024/02/26 11:00:05;;;;;;;1.07;0.80;;;;;;;;;;6141270;23;20197;-82
2024/02/26 11:03:03;;;;;;;2.90;0.90;;;;;;;;;;6148223;23;20214;-82
2024/02/26 11:06:13;;;;;;;3.20;0.97;;;;;;;;;;6172973;23;20631;-82
2024/02/26 11:09:17;;;;;;;2.03;0.90;;;;;;;;;;6172978;23;20167;-82
2024/02/26 11:16:21;;;;;;;1.33;0.90;;;;;;;;;;6205340;23;20471;-81
2024/02/26 11:19:00;;;;;;;2.23;0.90;;;;;;;;;;6156591;23;20622;-81
2024/02/26 11:21:47;;;;;;;1.83;1.00;;;;;;;;;;6197635;23;20182;-82
2024/02/26 11:25:11;;;;;;;2.27;0.90;;;;;;;;;;6177923;23;20173;-82
2024/02/26 11:28:21;;;;;;;1.33;0.87;;;;;;;;;;6142266;23;20163;-82
2024/02/26 11:31:51;;;;;;;1.30;0.80;;;;;;;;;;6181282;23;20637;-82
2024/02/26 11:39:03;;;;;;;2.90;0.93;;;;;;;;;;6112978;23;20157;-81
2024/02/26 11:42:00;;;;;;;3.30;2.33;;;;;;;;;;6091770;23;20624;-81
2024/02/26 11:49:27;;;;;;;1.87;1.00;;;;;;;;;;6085863;23;20184;-81
2024/02/26 11:52:35;;;;;;;1.43;1.00;;;;;;;;;;6108158;23;20171;-81
2024/02/26 11:55:46;;;;;;;1.43;1.00;;;;;;;;;;6144394;23;20151;-80
2024/02/26 12:03:08;;;;;;;0.97;0.80;;;;;;;;;;6145879;23;20195;-80
2024/02/26 12:05:53;;;;;;;2.87;0.90;;;;;;;;;;6131472;23;20178;-81
2024/02/26 12:08:23;;;;;;;1.57;1.10;;;;;;;;;;6122440;23;20672;-82
2024/02/26 12:10:51;;;;;;;0.97;0.90;;;;;;;;;;6128928;23;20180;-81
2024/02/26 12:13:19;;;;;;;1.80;1.10;;;;;;;;;;6177511;23;20167;-84
2024/02/26 12:15:52;;;;;;;1.67;1.10;;;;;;;;;;6186797;23;20166;-81
2024/02/26 12:18:54;;;;;;;1.33;1.03;;;;;;;;;;6191034;23;20166;-80
2024/02/26 12:25:50;;;;;;;2.13;1.33;;;;;;;;;;6135196;23;20247;-80
2024/02/26 12:28:18;;;;;;;2.33;1.20;;;;;;;;;;6134576;23;20164;-81
2024/02/26 12:30:49;;;;;;;1.23;0.93;;;;;;;;;;6144181;23;20243;-81
2024/02/26 12:33:19;;;;;;;1.87;0.90;;;;;;;;;;6120529;23;20172;-81
2024/02/26 12:36:12;;;;;;;2.73;1.20;;;;;;;;;;6129142;23;20183;-81
2024/02/26 12:38:42;;;;;;;1.60;1.13;;;;;;;;;;6118029;23;20164;-81
2024/02/26 12:53:12;;;;;;;2.13;0.90;;;;;;;;;;6073943;23;20168;-81
2024/02/26 12:56:06;;;;;;;2.33;1.10;;;;;;;;;;6086036;23;20180;-80
2024/02/26 12:58:39;;;;;;;2.20;1.27;;;;;;;;;;6080658;23;20181;-79
2024/02/26 13:01:13;;;;;;;1.53;1.43;;;;;;;;;;6103550;23;20174;-74
2024/02/26 13:03:42;;;;;;;2.00;1.23;;;;;;;;;;6186734;23;20187;-75
2024/02/26 13:06:09;;;;;;;1.57;1.23;;;;;;;;;;6186522;23;20175;-74
2024/02/26 13:08:38;;;;;;;2.33;1.20;;;;;;;;;;6186197;23;20174;-72
2024/02/26 13:11:05;;;;;;;1.47;0.80;;;;;;;;;;6187145;23;20240;-74
2024/02/26 13:13:33;;;;;;;2.37;1.00;;;;;;;;;;6187025;23;20163;-74
2024/02/26 13:16:01;;;;;;;1.90;1.00;;;;;;;;;;6186856;23;20194;-74
2024/02/26 13:18:32;;;;;;;1.30;0.97;;;;;;;;;;6186842;23;20205;-79
2024/02/26 13:21:22;;;;;;;1.80;0.93;;;;;;;;;;6194324;23;20155;-79
2024/02/26 13:24:06;;;;;;;1.50;1.20;;;;;;;;;;6194000;23;20182;-80
2024/02/26 13:26:40;;;;;;;0.83;0.83;;;;;;;;;;6194198;23;20490;-79
2024/02/26 13:29:17;;;;;;;2.73;1.00;;;;;;;;;;6194437;23;20202;-80
2024/02/26 13:31:56;;;;;;;1.93;1.20;;;;;;;;;;6194386;23;20189;-79
2024/02/26 13:34:35;;;;;;;1.27;0.93;;;;;;;;;;6172115;23;20158;-80
2024/02/26 13:37:06;;;;;;;1.57;1.00;;;;;;;;;;6194696;23;20151;-80
2024/02/26 13:39:34;;;;;;;1.87;0.87;;;;;;;;;;6167917;23;20171;-79
2024/02/26 13:42:08;;;;;;;2.23;1.30;;;;;;;;;;6194091;23;20226;-79
2024/02/26 13:44:39;;;;;;;3.10;1.60;;;;;;;;;;6167764;23;20265;-80
2024/02/26 13:47:48;;;;;;;1.60;1.07;;;;;;;;;;6101502;23;20180;-79
2024/02/26 13:50:15;;;;;;;1.43;1.07;;;;;;;;;;6098173;23;20204;-80
2024/02/26 13:52:42;;;;;;;1.57;1.10;;;;;;;;;;6074388;23;20168;-79
2024/02/26 13:55:09;;;;;;;1.80;1.10;;;;;;;;;;6100351;23;20176;-80
2024/02/26 13:57:37;;;;;;;1.73;0.93;;;;;;;;;;6101984;23;20711;-79
2024/02/26 14:00:06;;;;;;;1.87;0.90;;;;;;;;;;6102165;23;20178;-79
2024/02/26 14:02:38;;;;;;;2.20;0.80;;;;;;;;;;6112331;23;20172;-79
2024/02/26 14:05:06;;;;;;;1.30;0.97;;;;;;;;;;6100981;23;20172;-79
2024/02/26 14:07:36;;;;;;;2.30;1.00;;;;;;;;;;6103231;23;20155;-79
2024/02/26 14:10:12;;;;;;;2.27;1.00;;;;;;;;;;6103250;23;20181;-80
2024/02/26 14:12:43;;;;;;;2.33;0.90;;;;;;;;;;6082696;23;20247;-79
2024/02/26 14:15:12;;;;;;;1.37;0.90;;;;;;;;;;6103296;23;20165;-79
2024/02/26 14:17:40;;;;;;;1.47;1.10;;;;;;;;;;6078416;23;20263;-79
2024/02/26 14:20:08;;;;;;;1.20;0.90;;;;;;;;;;6078293;23;20616;-79
2024/02/26 14:22:36;;;;;;;2.40;1.10;;;;;;;;;;6101403;23;20168;-79
2024/02/26 14:25:03;;;;;;;1.03;0.90;;;;;;;;;;6130312;23;20167;-79
2024/02/26 14:27:33;;;;;;;2.37;1.00;;;;;;;;;;6193935;23;20173;-79
2024/02/26 14:30:02;;;;;;;1.90;1.00;;;;;;;;;;6193215;23;20166;-79
2024/02/26 14:32:35;;;;;;;1.87;1.40;;;;;;;;;;6167390;23;20220;-80
2024/02/26 14:35:04;;;;;;;3.93;2.50;;;;;;;;;;6192872;23;20174;-79
2024/02/26 14:37:32;;;;;;;4.07;2.90;;;;;;;;;;6194098;23;20191;-80
2024/02/26 14:39:59;;;;;;;1.93;1.33;;;;;;;;;;6166765;23;20174;-80
2024/02/26 14:42:33;;;;;;;2.53;1.53;;;;;;;;;;6192754;23;20213;-79
2024/02/26 14:45:01;;;;;;;2.97;1.20;;;;;;;;;;6192513;23;20193;-79
2024/02/26 14:47:29;;;;;;;2.00;1.30;;;;;;;;;;6165587;23;20198;-79
2024/02/26 14:49:58;;;;;;;3.90;0.93;;;;;;;;;;6165337;23;20234;-80
2024/02/26 14:52:26;;;;;;;2.20;1.20;;;;;;;;;;6191500;23;20217;-80
2024/02/26 14:54:55;;;;;;;1.37;1.10;;;;;;;;;;6165743;23;20246;-80
2024/02/26 14:57:27;;;;;;;2.53;1.40;;;;;;;;;;6191429;23;20176;-79
2024/02/26 14:59:57;;;;;;;4.03;3.00;;;;;;;;;;6165323;23;20147;-79
2024/02/26 15:02:25;;;;;;;3.97;2.73;;;;;;;;;;6165369;23;20159;-79
2024/02/26 15:04:54;;;;;;;1.10;0.93;;;;;;;;;;6163808;23;20197;-79
2024/02/26 15:07:22;;;;;;;2.77;1.53;;;;;;;;;;6164855;23;20159;-80
2024/02/26 15:09:56;;;;;;;1.70;1.60;;;;;;;;;;6190594;23;20181;-79
2024/02/26 15:12:24;;;;;;;3.53;2.57;;;;;;;;;;6164324;23;20234;-79
2024/02/26 15:14:58;;;;;;;2.67;2.10;;;;;;;;;;6189868;23;20193;-79
2024/02/26 15:17:34;;;;;;;2.00;1.30;;;;;;;;;;6188889;23;20180;-79
2024/02/26 15:20:02;;;;;;;2.73;1.30;;;;;;;;;;6189415;23;20146;-79
2024/02/26 15:22:30;;;;;;;6.73;5.90;;;;;;;;;;6163106;23;20168;-79
2024/02/26 15:24:58;;;;;;;3.57;2.17;;;;;;;;;;6190032;23;20192;-79
2024/02/26 15:27:26;;;;;;;4.80;4.30;;;;;;;;;;6139177;23;20169;-79
2024/02/26 15:29:58;;;;;;;3.03;1.50;;;;;;;;;;6189260;23;20157;-79
2024/02/26 15:32:27;;;;;;;2.97;1.53;;;;;;;;;;6138280;23;20169;-79
2024/02/26 15:34:55;;;;;;;3.87;2.43;;;;;;;;;;6162892;23;20178;-79
2024/02/26 15:37:23;;;;;;;4.73;1.90;;;;;;;;;;6162724;23;20193;-79
2024/02/26 15:39:52;;;;;;;2.77;1.47;;;;;;;;;;6187976;23;20222;-79
2024/02/26 15:42:19;;;;;;;3.70;1.63;;;;;;;;;;6161978;23;20337;-79
2024/02/26 15:44:47;;;;;;;2.27;1.90;;;;;;;;;;6162534;23;20633;-79
2024/02/26 15:47:15;;;;;;;3.20;2.37;;;;;;;;;;6188955;23;20748;-79
2024/02/26 15:49:43;;;;;;;3.33;2.40;;;;;;;;;;6188036;23;20278;-79
2024/02/26 15:52:11;;;;;;;2.20;1.60;;;;;;;;;;6137873;23;20187;-79
2024/02/26 15:54:40;;;;;;;2.53;1.90;;;;;;;;;;6162237;23;20182;-79
2024/02/26 15:57:11;;;;;;;3.67;1.40;;;;;;;;;;6188593;23;20163;-79
2024/02/26 15:59:39;;;;;;;2.10;1.50;;;;;;;;;;6137640;23;20611;-79
2024/02/26 16:02:06;;;;;;;3.37;1.70;;;;;;;;;;6137427;23;20225;-80
2024/02/26 16:04:34;;;;;;;3.43;2.40;;;;;;;;;;6188085;23;20644;-79
2024/02/26 16:07:06;;;;;;;3.77;2.00;;;;;;;;;;6188385;23;20161;-79
2024/02/26 16:09:34;;;;;;;5.67;3.50;;;;;;;;;;6189467;23;20238;-80